Time;durP1;ratioP1;P1;durP2;ratioP2;P2;SDS_P1;SDS_P2;PMS_P1;PMS_P2;Temp;Humidity;BMP_temperature;BMP_pressure;BME280_temperature;BME280_humidity;BME280_pressure;Samples;Min_cycle;Max_cycle;Signal;HPM_P1;HPM_P2
2022/12/08 00:00:16;;;;;;;7.57;5.40;;;;;;;1.82;94.87;100655.34;6049906;29;20273;-78
2022/12/08 00:03:37;;;;;;;12.40;8.10;;;;;;;1.69;95.77;100641.06;6054037;29;20233;-77
2022/12/08 00:10:38;;;;;;;8.67;6.73;;;;;;;1.61;96.81;100642.34;6056682;29;20229;-78
2022/12/08 00:13:59;;;;;;;7.07;5.13;;;;;;;1.69;96.76;100628.59;6066183;29;20245;-79
2022/12/08 00:17:20;;;;;;;9.40;6.47;;;;;;;1.74;96.44;100631.88;6060606;29;20225;-79
2022/12/08 00:20:40;;;;;;;10.60;6.37;;;;;;;1.69;96.62;100633.09;6035895;29;20238;-77
2022/12/08 00:24:02;;;;;;;5.93;5.30;;;;;;;1.72;97.18;100622.28;6062159;29;20237;-78
2022/12/08 00:27:23;;;;;;;7.47;6.17;;;;;;;1.73;97.55;100616.03;6065707;29;20229;-80
2022/12/08 00:30:45;;;;;;;7.20;5.80;;;;;;;1.80;97.16;100620.03;6057387;29;20241;-78
2022/12/08 00:34:06;;;;;;;7.23;5.83;;;;;;;1.90;97.66;100614.09;6066357;29;20253;-78
2022/12/08 00:37:27;;;;;;;8.00;6.17;;;;;;;1.97;97.63;100612.81;6065716;29;20233;-80
2022/12/08 00:40:49;;;;;;;7.83;4.97;;;;;;;2.09;97.40;100608.59;6057164;29;20257;-78
2022/12/08 00:44:12;;;;;;;8.03;6.93;;;;;;;2.14;97.46;100602.06;6048086;29;20237;-76
2022/12/08 00:47:33;;;;;;;6.60;5.63;;;;;;;2.21;97.33;100591.94;6061395;29;20316;-77
2022/12/08 00:50:54;;;;;;;5.37;3.97;;;;;;;2.28;96.95;100594.13;6063754;29;20675;-78
2022/12/08 00:54:14;;;;;;;5.47;4.97;;;;;;;2.32;96.86;100590.34;6061709;29;20238;-77
2022/12/08 00:57:42;;;;;;;6.03;5.37;;;;;;;2.39;96.94;100583.72;6065553;29;20234;-77
2022/12/08 01:01:10;;;;;;;5.60;4.97;;;;;;;2.41;96.34;100583.63;6060925;29;20237;-76
2022/12/08 01:04:31;;;;;;;4.57;4.00;;;;;;;2.46;96.49;100580.69;6062825;29;20563;-78
2022/12/08 01:07:51;;;;;;;7.40;4.70;;;;;;;2.48;96.91;100581.44;6064228;29;20225;-77
2022/12/08 01:11:17;;;;;;;5.27;4.20;;;;;;;2.50;96.54;100568.91;6055541;29;20265;-78
2022/12/08 01:14:39;;;;;;;4.93;4.40;;;;;;;2.51;96.65;100579.44;6060283;29;20241;-75
2022/12/08 01:17:59;;;;;;;3.77;3.40;;;;;;;2.51;96.46;100579.44;6056052;29;20246;-78
2022/12/08 01:21:21;;;;;;;4.50;3.40;;;;;;;2.49;96.52;100573.38;6053792;29;20241;-77
2022/12/08 01:24:42;;;;;;;3.53;3.07;;;;;;;2.59;96.40;100565.69;6064230;29;20241;-76
2022/12/08 01:28:02;;;;;;;5.43;4.27;;;;;;;2.59;96.42;100573.69;6064002;29;20237;-78
2022/12/08 01:31:26;;;;;;;3.80;3.37;;;;;;;2.65;96.11;100568.81;6056481;29;20241;-77
2022/12/08 01:34:47;;;;;;;4.33;3.93;;;;;;;2.69;96.28;100561.53;6062125;29;20316;-77
2022/12/08 01:38:07;;;;;;;3.23;2.57;;;;;;;2.68;96.33;100568.66;6073804;29;20233;-76
2022/12/08 01:41:32;;;;;;;3.30;3.00;;;;;;;2.68;95.89;100565.13;6065460;29;20240;-77
2022/12/08 01:44:57;;;;;;;3.47;3.17;;;;;;;2.71;96.03;100547.16;6058866;29;20222;-77
2022/12/08 01:48:22;;;;;;;3.43;3.13;;;;;;;2.73;96.16;100547.94;6066192;29;20237;-77
2022/12/08 01:51:49;;;;;;;3.70;3.33;;;;;;;2.71;95.93;100551.63;6064419;29;20261;-76
2022/12/08 01:55:17;;;;;;;4.20;3.40;;;;;;;2.77;96.22;100545.94;6065995;29;20249;-76
2022/12/08 01:58:42;;;;;;;5.50;3.90;;;;;;;2.65;96.24;100541.38;6060498;29;20244;-77
2022/12/08 02:02:03;;;;;;;4.23;3.93;;;;;;;2.69;96.07;100538.41;6058808;29;20233;-77
2022/12/08 02:05:27;;;;;;;3.10;2.70;;;;;;;2.59;96.55;100549.75;6064392;29;20233;-76
2022/12/08 02:08:49;;;;;;;3.40;2.70;;;;;;;2.31;96.29;100550.56;6068733;29;20221;-77
2022/12/08 02:12:11;;;;;;;1.93;1.83;;;;;;;2.02;96.86;100544.31;6065831;29;20241;-78
2022/12/08 02:15:38;;;;;;;2.67;2.40;;;;;;;1.85;97.48;100540.94;6064711;29;20257;-77
2022/12/08 02:19:11;;;;;;;3.23;2.70;;;;;;;1.79;97.66;100539.50;6061706;29;20252;-78
2022/12/08 02:22:42;;;;;;;3.23;2.83;;;;;;;1.78;97.89;100544.88;6050471;29;20607;-78
2022/12/08 02:26:32;;;;;;;2.93;2.73;;;;;;;1.85;97.83;100527.63;6059886;29;20244;-79
2022/12/08 02:30:23;;;;;;;3.73;2.60;;;;;;;1.91;97.50;100533.47;6060515;29;20234;-78
2022/12/08 02:34:07;;;;;;;3.50;3.20;;;;;;;2.06;97.71;100529.03;6065674;29;20612;-78
2022/12/08 02:37:32;;;;;;;3.13;2.80;;;;;;;2.01;97.92;100517.81;6062221;29;20245;-78
2022/12/08 02:41:00;;;;;;;3.43;2.93;;;;;;;2.08;97.43;100516.50;6066881;29;20234;-77
2022/12/08 02:44:27;;;;;;;3.47;3.17;;;;;;;2.27;97.59;100512.63;6059528;29;20236;-77
2022/12/08 02:47:48;;;;;;;3.70;2.73;;;;;;;2.25;97.16;100505.72;6061943;29;20238;-77
2022/12/08 02:51:11;;;;;;;2.93;2.53;;;;;;;2.26;97.61;100502.97;6070942;29;20229;-78
2022/12/08 02:54:32;;;;;;;3.03;2.73;;;;;;;2.39;97.33;100497.75;6072065;29;20716;-77
2022/12/08 02:58:24;;;;;;;2.63;2.43;;;;;;;2.36;96.95;100500.59;6066649;29;20623;-78
2022/12/08 03:01:58;;;;;;;2.60;2.40;;;;;;;2.42;97.08;100495.75;6056008;29;20329;-76
2022/12/08 03:05:31;;;;;;;2.77;2.57;;;;;;;2.42;97.27;100508.19;6057997;29;20253;-77
2022/12/08 03:08:58;;;;;;;2.97;2.70;;;;;;;2.46;96.70;100482.28;6071193;29;20233;-76
2022/12/08 03:12:25;;;;;;;2.30;2.10;;;;;;;2.50;96.67;100481.13;6058686;29;20758;-77
2022/12/08 03:15:50;;;;;;;2.90;2.33;;;;;;;2.55;96.10;100474.56;6055318;29;20233;-77
2022/12/08 03:19:16;;;;;;;2.40;2.20;;;;;;;2.51;96.22;100485.47;6062867;29;20265;-76
2022/12/08 03:22:41;;;;;;;3.00;2.70;;;;;;;2.47;96.36;100476.84;6062095;29;20229;-77
2022/12/08 03:26:08;;;;;;;2.70;1.83;;;;;;;2.51;96.26;100469.53;6054573;29;20233;-77
2022/12/08 03:29:30;;;;;;;3.70;2.00;;;;;;;2.50;96.23;100465.16;6062244;29;20237;-76
2022/12/08 03:32:56;;;;;;;2.57;2.37;;;;;;;2.57;96.51;100458.50;6061165;29;20225;-77
2022/12/08 03:36:17;;;;;;;1.80;1.33;;;;;;;2.63;96.19;100474.09;6063465;29;20335;-77
2022/12/08 03:39:38;;;;;;;6.03;2.30;;;;;;;2.54;95.51;100459.56;6060302;29;20593;-77
2022/12/08 03:43:00;;;;;;;1.70;1.60;;;;;;;2.48;95.64;100456.44;6051394;29;20241;-77
2022/12/08 03:46:23;;;;;;;1.73;1.63;;;;;;;2.47;95.80;100455.56;6055964;29;20240;-76
2022/12/08 03:49:44;;;;;;;1.63;1.53;;;;;;;2.51;95.41;100457.09;6061419;29;20311;-77
2022/12/08 03:53:05;;;;;;;1.90;1.10;;;;;;;2.52;95.82;100457.94;6060763;29;20240;-77
2022/12/08 03:56:30;;;;;;;2.17;1.63;;;;;;;2.53;95.56;100455.19;6057009;29;20742;-77
2022/12/08 03:59:53;;;;;;;1.40;1.30;;;;;;;2.54;95.23;100451.59;6059198;29;20237;-77
2022/12/08 04:03:14;;;;;;;3.13;1.60;;;;;;;2.60;94.85;100448.53;6065618;29;20241;-77
2022/12/08 04:06:35;;;;;;;1.13;1.13;;;;;;;2.49;95.27;100451.00;6070474;29;20237;-77
2022/12/08 04:09:56;;;;;;;2.00;1.73;;;;;;;2.45;95.61;100446.84;6067243;29;20237;-76
2022/12/08 04:13:16;;;;;;;1.83;1.67;;;;;;;2.46;95.69;100445.03;6070288;29;20236;-77
2022/12/08 04:16:39;;;;;;;1.10;1.10;;;;;;;2.36;95.59;100439.41;6069325;29;20233;-78
2022/12/08 04:20:00;;;;;;;1.13;1.03;;;;;;;2.35;95.88;100427.94;6065512;29;20237;-77
2022/12/08 04:23:21;;;;;;;1.80;1.13;;;;;;;2.39;96.31;100431.25;6075195;29;20240;-77
2022/12/08 04:26:42;;;;;;;1.10;1.10;;;;;;;2.50;95.33;100434.13;6064953;29;20516;-77
2022/12/08 04:30:03;;;;;;;1.07;1.00;;;;;;;2.46;95.68;100429.94;6063381;29;20237;-77
2022/12/08 04:33:25;;;;;;;1.23;1.13;;;;;;;2.44;94.90;100431.84;6071406;29;20233;-78
2022/12/08 04:36:46;;;;;;;0.93;0.87;;;;;;;2.46;95.12;100432.59;6070091;29;20237;-77
2022/12/08 04:40:08;;;;;;;1.50;1.17;;;;;;;2.42;95.20;100420.41;6068123;29;20241;-77
2022/12/08 04:43:29;;;;;;;1.20;1.07;;;;;;;2.41;94.96;100426.69;6066039;29;20241;-78
2022/12/08 04:46:49;;;;;;;1.23;1.20;;;;;;;2.34;95.29;100428.88;6072545;29;20236;-78
2022/12/08 04:50:12;;;;;;;1.00;1.00;;;;;;;2.32;95.46;100429.91;6062902;29;20249;-78
2022/12/08 04:53:33;;;;;;;1.30;1.20;;;;;;;2.35;94.85;100424.44;6072066;29;20608;-78
2022/12/08 04:56:54;;;;;;;0.70;0.70;;;;;;;2.31;95.22;100410.47;6068396;29;20229;-78
2022/12/08 05:00:16;;;;;;;1.37;1.27;;;;;;;2.42;94.97;100407.97;6066999;29;20237;-78
2022/12/08 05:03:37;;;;;;;1.57;1.47;;;;;;;2.42;94.97;100402.66;6066751;29;20332;-76
2022/12/08 05:06:59;;;;;;;0.80;0.80;;;;;;;2.44;95.05;100413.22;6074710;29;20327;-78
2022/12/08 05:10:21;;;;;;;0.83;0.83;;;;;;;2.43;95.23;100419.47;6063243;29;20469;-77
2022/12/08 05:13:41;;;;;;;1.17;1.13;;;;;;;2.52;95.41;100413.59;6062606;29;20278;-76
2022/12/08 05:17:02;;;;;;;1.13;1.13;;;;;;;2.42;94.82;100415.97;6068152;29;20230;-78
2022/12/08 05:20:23;;;;;;;1.00;1.00;;;;;;;2.31;95.29;100415.78;6073427;29;20842;-77
2022/12/08 05:23:45;;;;;;;9.63;1.50;;;;;;;2.32;95.45;100419.28;6066194;29;20548;-76
2022/12/08 05:27:06;;;;;;;1.00;1.00;;;;;;;2.48;94.65;100416.53;6062586;29;20324;-77
2022/12/08 05:30:28;;;;;;;1.63;1.53;;;;;;;2.39;94.80;100417.97;6063236;29;20631;-78
2022/12/08 05:33:52;;;;;;;1.40;1.30;;;;;;;2.33;94.50;100418.34;6069269;29;20232;-78
2022/12/08 05:37:12;;;;;;;1.40;1.30;;;;;;;2.26;95.19;100407.25;6067952;29;20244;-78
2022/12/08 05:40:37;;;;;;;1.20;1.20;;;;;;;2.32;95.27;100400.66;6064915;29;20236;-78
2022/12/08 05:43:58;;;;;;;1.20;1.10;;;;;;;2.29;95.11;100400.88;6066580;29;20249;-77
2022/12/08 05:47:19;;;;;;;1.20;1.10;;;;;;;2.28;94.99;100413.31;6054601;29;20236;-78
2022/12/08 05:50:45;;;;;;;1.23;1.03;;;;;;;2.37;94.79;100418.06;6059103;29;21167;-78
2022/12/08 05:54:06;;;;;;;0.77;0.77;;;;;;;2.56;94.09;100432.88;6062072;29;20237;-75
2022/12/08 05:57:29;;;;;;;1.07;0.90;;;;;;;2.48;94.16;100432.50;6060763;29;20256;-77
2022/12/08 06:00:50;;;;;;;1.03;1.00;;;;;;;2.56;93.93;100428.41;6047058;29;20320;-78
2022/12/08 06:04:12;;;;;;;2.10;1.97;;;;;;;2.63;93.21;100435.03;6050806;29;20237;-77
2022/12/08 06:07:33;;;;;;;1.30;1.20;;;;;;;2.57;93.54;100434.56;6054316;29;20282;-77
2022/12/08 06:10:53;;;;;;;2.93;1.20;;;;;;;2.44;94.24;100434.50;6053359;29;20275;-77
2022/12/08 06:14:16;;;;;;;1.30;1.20;;;;;;;2.30;94.49;100437.13;6060796;29;20233;-77
2022/12/08 06:17:36;;;;;;;1.07;1.00;;;;;;;2.39;94.78;100437.44;6051488;29;20237;-77
2022/12/08 06:21:02;;;;;;;0.90;0.90;;;;;;;2.30;94.93;100426.50;6053399;29;20682;-77
2022/12/08 06:24:23;;;;;;;1.10;1.00;;;;;;;2.18;95.17;100427.28;6058128;29;20233;-78
2022/12/08 06:27:44;;;;;;;1.07;0.90;;;;;;;2.17;95.46;100428.22;6051070;29;20229;-77
2022/12/08 06:31:09;;;;;;;0.80;0.80;;;;;;;2.16;95.94;100422.06;6046366;29;20249;-77
2022/12/08 06:34:30;;;;;;;0.80;0.80;;;;;;;2.18;95.69;100435.25;6050426;29;20233;-76
2022/12/08 06:37:51;;;;;;;1.07;1.07;;;;;;;2.11;96.22;100432.09;6056305;29;20292;-78
2022/12/08 06:41:13;;;;;;;1.20;1.10;;;;;;;2.07;96.09;100435.03;6048867;29;20236;-76
2022/12/08 06:44:33;;;;;;;0.90;0.90;;;;;;;2.01;96.32;100438.94;6052074;29;20711;-77
2022/12/08 06:47:56;;;;;;;1.07;1.07;;;;;;;2.10;96.14;100442.84;6046076;29;20225;-74
2022/12/08 06:51:19;;;;;;;1.57;1.47;;;;;;;2.03;96.04;100447.66;6052058;29;20328;-73
2022/12/08 06:54:40;;;;;;;1.43;1.33;;;;;;;2.07;96.45;100448.31;6050806;29;20225;-72
2022/12/08 06:58:01;;;;;;;1.37;1.30;;;;;;;2.09;96.55;100449.09;6057268;29;20236;-73
2022/12/08 07:01:22;;;;;;;1.30;1.23;;;;;;;2.12;96.53;100455.09;6046843;29;20229;-75
2022/12/08 07:04:44;;;;;;;1.07;1.07;;;;;;;2.23;95.64;100463.25;6057590;29;20534;-75
2022/12/08 07:08:06;;;;;;;1.47;1.37;;;;;;;2.33;95.11;100456.44;6053471;29;20246;-77
2022/12/08 07:11:27;;;;;;;1.37;1.27;;;;;;;2.20;95.45;100457.28;6049308;29;20305;-74
2022/12/08 07:14:48;;;;;;;1.53;1.43;;;;;;;2.36;95.31;100463.34;6042865;29;20825;-76
2022/12/08 07:18:09;;;;;;;3.50;1.90;;;;;;;2.22;94.89;100466.88;6045024;29;20241;-74
2022/12/08 07:21:31;;;;;;;2.20;1.97;;;;;;;2.13;95.37;100459.44;6054752;29;20698;-75
2022/12/08 07:24:51;;;;;;;1.50;1.40;;;;;;;2.09;95.40;100454.41;6049280;29;20241;-76
2022/12/08 07:28:12;;;;;;;2.80;2.00;;;;;;;2.19;95.07;100450.25;6050367;29;20241;-77
2022/12/08 07:31:34;;;;;;;2.67;2.47;;;;;;;2.22;94.83;100445.59;6055688;29;20233;-78
2022/12/08 07:34:55;;;;;;;2.10;1.97;;;;;;;2.20;94.80;100450.16;6053429;29;20324;-78
2022/12/08 07:38:20;;;;;;;2.80;2.60;;;;;;;2.42;94.84;100439.03;6055675;29;20328;-79
2022/12/08 07:41:40;;;;;;;1.73;1.63;;;;;;;2.53;93.80;100444.53;6053995;29;20237;-80
2022/12/08 07:45:01;;;;;;;2.37;2.17;;;;;;;2.54;93.63;100445.41;6053869;29;20257;-79
2022/12/08 07:48:22;;;;;;;2.07;1.87;;;;;;;2.63;93.34;100448.31;6047214;29;20257;-75
2022/12/08 07:51:43;;;;;;;2.70;2.20;;;;;;;2.66;93.51;100450.81;6046091;29;20229;-74
2022/12/08 07:55:06;;;;;;;2.93;2.40;;;;;;;2.56;93.11;100449.69;6046782;29;20237;-75
2022/12/08 07:58:27;;;;;;;2.70;1.60;;;;;;;2.41;94.08;100455.97;6047594;29;20229;-75
2022/12/08 08:01:50;;;;;;;1.97;1.83;;;;;;;2.38;94.52;100449.00;6047246;29;20261;-74
2022/12/08 08:05:12;;;;;;;2.37;2.23;;;;;;;2.28;95.18;100445.22;6051243;29;20312;-74
2022/12/08 08:08:32;;;;;;;3.00;2.53;;;;;;;2.24;95.65;100466.78;6059142;29;20560;-74
2022/12/08 08:11:54;;;;;;;2.80;2.50;;;;;;;2.09;96.01;100465.91;6053753;29;20257;-74
2022/12/08 08:15:16;;;;;;;3.10;2.90;;;;;;;2.27;95.37;100471.91;6049164;29;20273;-74
2022/12/08 08:18:37;;;;;;;4.03;3.67;;;;;;;2.33;95.86;100471.53;6046303;29;20265;-72
2022/12/08 08:21:58;;;;;;;2.97;2.73;;;;;;;2.22;95.93;100480.16;6053047;29;20611;-73
2022/12/08 08:25:21;;;;;;;3.87;2.47;;;;;;;2.29;96.12;100476.19;6054936;29;20229;-74
2022/12/08 08:28:44;;;;;;;3.30;3.00;;;;;;;2.42;95.45;100468.28;6042622;29;21165;-75
2022/12/08 08:32:05;;;;;;;2.73;2.53;;;;;;;2.50;94.87;100470.50;6047145;29;20528;-76
2022/12/08 08:35:26;;;;;;;2.70;2.50;;;;;;;2.35;95.55;100475.81;6063675;29;20237;-74
2022/12/08 08:38:47;;;;;;;4.03;3.73;;;;;;;2.49;95.49;100472.28;6049963;29;20237;-74
2022/12/08 08:42:08;;;;;;;4.50;4.10;;;;;;;2.73;94.76;100483.22;6051872;29;20225;-74
2022/12/08 08:45:31;;;;;;;2.50;2.30;;;;;;;2.55;95.04;100476.34;6059131;29;20234;-72
2022/12/08 08:48:52;;;;;;;2.30;2.10;;;;;;;2.71;94.95;100477.97;6057314;29;20829;-71
2022/12/08 08:52:31;;;;;;;2.07;1.97;;;;;;;2.84;93.98;100476.25;6059779;29;20230;-73
2022/12/08 08:55:52;;;;;;;2.37;2.27;;;;;;;2.98;94.32;100480.72;6042193;29;20261;-67
2022/12/08 08:59:13;;;;;;;1.60;1.50;;;;;;;2.87;93.93;100475.19;6057879;29;20229;-68
2022/12/08 09:02:35;;;;;;;2.77;2.57;;;;;;;3.07;93.42;100472.97;6050211;29;20233;-71
2022/12/08 09:05:57;;;;;;;1.60;1.50;;;;;;;3.10;92.73;100474.59;6054317;29;20499;-72
2022/12/08 09:09:18;;;;;;;1.63;1.53;;;;;;;3.12;92.14;100475.34;6053729;29;20607;-75
2022/12/08 09:12:38;;;;;;;1.53;1.43;;;;;;;3.10;91.76;100480.78;6059518;29;20233;-73
2022/12/08 09:16:00;;;;;;;8.87;7.23;;;;;;;3.08;91.49;100474.69;6056274;29;20237;-73
2022/12/08 09:19:23;;;;;;;12.93;9.63;;;;;;;3.12;91.20;100486.00;6054986;29;20240;-75
2022/12/08 09:22:43;;;;;;;5.53;3.57;;;;;;;3.19;90.20;100495.31;6060278;29;20506;-75
2022/12/08 09:26:05;;;;;;;2.90;2.70;;;;;;;3.15;90.23;100480.47;6056700;29;20880;-76
2022/12/08 09:29:26;;;;;;;2.90;2.27;;;;;;;3.01;89.83;100484.03;6053733;29;21347;-76
2022/12/08 09:32:47;;;;;;;2.53;1.90;;;;;;;3.02;90.03;100495.53;6056055;29;20241;-73
2022/12/08 09:36:10;;;;;;;1.90;1.57;;;;;;;3.05;89.42;100490.00;6055691;29;20291;-75
2022/12/08 09:39:31;;;;;;;1.90;1.80;;;;;;;2.80;89.20;100485.38;6049530;29;20229;-76
2022/12/08 09:42:58;;;;;;;2.63;2.47;;;;;;;2.76;89.86;100485.66;6056075;29;20372;-76
2022/12/08 09:46:20;;;;;;;2.03;1.80;;;;;;;2.76;90.16;100494.50;6055933;29;20754;-78
2022/12/08 09:49:45;;;;;;;3.30;2.40;;;;;;;2.76;90.14;100494.50;6054143;29;21931;-78
2022/12/08 09:53:14;;;;;;;2.40;2.20;;;;;;;2.76;90.13;100497.16;6061641;29;20931;-77
2022/12/08 09:56:37;;;;;;;3.03;2.10;;;;;;;2.91;89.59;100508.66;6056312;29;20237;-80
2022/12/08 10:00:04;;;;;;;2.60;2.40;;;;;;;2.88;89.37;100504.38;6051591;29;20600;-77
2022/12/08 10:03:30;;;;;;;3.50;2.60;;;;;;;2.80;89.76;100501.34;6036739;29;20884;-80
2022/12/08 10:07:03;;;;;;;7.47;5.23;;;;;;;3.22;91.91;100501.28;6039962;29;20612;-74
2022/12/08 10:10:36;;;;;;;2.23;2.10;;;;;;;3.01;88.98;100502.66;6036256;29;20320;-76
2022/12/08 10:14:05;;;;;;;3.43;3.23;;;;;;;2.51;90.49;100504.97;6049572;29;20319;-74
2022/12/08 10:17:33;;;;;;;2.13;1.50;;;;;;;2.58;90.88;100500.13;6046809;29;20241;-74
2022/12/08 10:20:59;;;;;;;4.67;1.83;;;;;;;2.76;90.27;100506.94;6045408;29;20332;-76
2022/12/08 10:24:26;;;;;;;2.10;1.90;;;;;;;2.67;90.20;100505.72;6050914;29;20241;-74
2022/12/08 10:27:53;;;;;;;6.40;2.00;;;;;;;2.71;90.43;100514.38;6045862;29;20253;-75
2022/12/08 10:31:21;;;;;;;1.83;1.70;;;;;;;2.70;90.69;100510.88;6048923;29;20234;-73
2022/12/08 10:35:02;;;;;;;1.87;1.77;;;;;;;2.77;90.61;100512.19;6049632;29;20240;-72
2022/12/08 10:38:27;;;;;;;1.63;1.53;;;;;;;2.66;90.92;100516.47;6050543;29;20545;-73
2022/12/08 10:41:47;;;;;;;2.07;1.27;;;;;;;2.78;90.50;100521.00;6046298;29;20286;-70
2022/12/08 10:45:26;;;;;;;1.30;1.20;;;;;;;2.91;90.07;100512.19;6049321;29;20317;-77
2022/12/08 10:48:49;;;;;;;1.60;1.50;;;;;;;2.88;90.00;100511.53;6050073;29;20630;-74
2022/12/08 10:52:22;;;;;;;2.20;1.87;;;;;;;3.18;89.27;100514.88;6045988;29;20260;-72
2022/12/08 10:55:45;;;;;;;1.50;1.40;;;;;;;3.33;87.88;100511.25;6055338;29;20237;-72
2022/12/08 10:59:14;;;;;;;1.53;1.43;;;;;;;3.11;88.48;100524.22;6054050;29;20261;-74
2022/12/08 11:02:36;;;;;;;0.77;0.77;;;;;;;3.12;88.43;100518.81;6049256;29;20515;-73
2022/12/08 11:05:59;;;;;;;1.73;1.30;;;;;;;3.05;88.75;100514.81;6053791;29;20229;-73
2022/12/08 11:09:32;;;;;;;1.60;1.50;;;;;;;3.17;88.56;100516.69;6054997;29;20237;-72
2022/12/08 11:12:54;;;;;;;1.70;1.60;;;;;;;3.28;87.75;100510.66;6055110;29;20769;-74
2022/12/08 11:16:17;;;;;;;1.33;1.20;;;;;;;3.48;87.10;100507.59;6044919;29;20230;-74
2022/12/08 11:19:40;;;;;;;2.27;1.83;;;;;;;3.59;86.99;100512.22;6058840;29;20248;-78
2022/12/08 11:23:02;;;;;;;1.57;1.47;;;;;;;3.51;87.36;100517.16;6055462;29;20233;-79
2022/12/08 11:26:31;;;;;;;1.00;1.00;;;;;;;3.27;88.02;100516.09;6056424;29;20265;-79
2022/12/08 11:29:51;;;;;;;1.93;1.70;;;;;;;3.43;87.48;100530.13;6048506;29;20596;-79
2022/12/08 11:33:18;;;;;;;2.30;2.10;;;;;;;3.32;87.59;100519.34;6050467;29;20237;-78
2022/12/08 11:36:40;;;;;;;2.30;2.10;;;;;;;3.27;87.73;100518.78;6053006;29;20319;-79
2022/12/08 11:40:07;;;;;;;2.40;2.30;;;;;;;3.34;88.14;100515.59;6053359;29;20250;-80
2022/12/08 11:43:36;;;;;;;3.27;2.20;;;;;;;3.35;88.24;100519.97;6053792;29;20316;-80
2022/12/08 11:47:01;;;;;;;2.03;1.93;;;;;;;3.49;88.00;100508.41;6046504;29;20241;-79
2022/12/08 11:50:29;;;;;;;3.77;2.73;;;;;;;3.40;87.81;100514.38;6052558;29;20678;-79
2022/12/08 11:54:05;;;;;;;1.83;1.43;;;;;;;3.19;88.05;100520.09;6052968;29;20233;-79
2022/12/08 11:57:29;;;;;;;1.40;1.20;;;;;;;3.08;88.55;100519.97;6050467;29;20548;-78
2022/12/08 12:00:50;;;;;;;2.13;1.93;;;;;;;3.17;88.60;100519.34;6047579;29;20260;-71
2022/12/08 12:04:20;;;;;;;1.40;1.30;;;;;;;3.05;88.97;100522.81;6039116;29;20237;-73
2022/12/08 12:07:54;;;;;;;2.23;2.03;;;;;;;3.12;89.55;100517.94;6045353;29;20762;-74
2022/12/08 12:15:35;;;;;;;2.87;2.17;;;;;;;3.54;88.97;100517.84;6056837;29;20270;-72
2022/12/08 12:18:58;;;;;;;2.57;2.17;;;;;;;3.69;89.89;100519.47;6054335;29;20233;-62
2022/12/08 12:22:22;;;;;;;2.07;1.97;;;;;;;3.57;89.03;100514.94;6045764;29;20257;-62
2022/12/08 12:25:50;;;;;;;3.73;3.43;;;;;;;3.96;89.47;100512.28;6047818;29;20233;-74
2022/12/08 12:29:17;;;;;;;3.17;2.53;;;;;;;3.92;87.03;100516.13;6065003;29;21024;-75
2022/12/08 12:32:45;;;;;;;2.67;2.17;;;;;;;3.61;87.15;100527.13;6053834;29;20563;-73
2022/12/08 12:36:08;;;;;;;2.00;1.37;;;;;;;3.68;87.48;100517.78;6059498;29;20234;-73
2022/12/08 12:39:33;;;;;;;1.90;1.63;;;;;;;3.65;88.31;100515.28;6060554;29;20523;-72
2022/12/08 12:43:13;;;;;;;1.80;1.70;;;;;;;3.45;88.38;100515.75;6061676;29;20253;-74
2022/12/08 12:46:52;;;;;;;1.60;1.50;;;;;;;3.35;88.33;100516.47;6051336;29;20245;-75
2022/12/08 12:50:15;;;;;;;1.70;1.60;;;;;;;3.28;88.61;100513.34;6051534;29;20261;-77
2022/12/08 12:53:50;;;;;;;1.97;1.53;;;;;;;3.32;89.16;100519.34;6050799;29;20248;-76
2022/12/08 12:57:23;;;;;;;2.20;1.80;;;;;;;3.28;88.65;100523.13;6039185;29;20261;-76
2022/12/08 13:00:44;;;;;;;1.27;1.17;;;;;;;3.49;88.99;100522.59;6047396;29;20495;-71
2022/12/08 13:04:09;;;;;;;3.50;1.90;;;;;;;3.65;88.37;100525.94;6062787;29;20233;-73
2022/12/08 13:07:34;;;;;;;2.20;1.97;;;;;;;3.74;88.46;100529.81;6041642;29;20230;-72
2022/12/08 13:10:59;;;;;;;6.00;2.47;;;;;;;3.65;87.96;100533.13;6041470;29;20238;-77
2022/12/08 13:14:45;;;;;;;2.63;2.43;;;;;;;3.56;87.88;100531.06;6049069;29;20233;-74
2022/12/08 13:18:07;;;;;;;1.80;1.70;;;;;;;3.45;88.26;100523.75;6040462;29;20241;-74
2022/12/08 13:21:35;;;;;;;2.07;1.97;;;;;;;3.47;88.74;100523.66;6046272;29;20858;-76
2022/12/08 13:25:33;;;;;;;2.97;2.77;;;;;;;3.36;89.18;100529.66;6053945;29;20236;-73
2022/12/08 13:29:21;;;;;;;2.27;2.17;;;;;;;3.41;89.29;100532.91;6050772;29;20233;-75
2022/12/08 13:32:56;;;;;;;2.83;1.70;;;;;;;3.40;89.17;100533.00;6054295;29;20623;-73
2022/12/08 13:36:23;;;;;;;2.33;2.13;;;;;;;3.39;89.29;100525.97;6055568;29;20228;-74
2022/12/08 13:39:51;;;;;;;2.50;2.30;;;;;;;3.35;88.60;100519.13;6051173;29;20281;-75
2022/12/08 13:43:19;;;;;;;1.67;1.57;;;;;;;3.21;89.21;100520.03;6050848;29;20233;-74
2022/12/08 13:46:43;;;;;;;2.63;2.03;;;;;;;3.32;89.28;100524.66;6042364;29;20241;-72
2022/12/08 13:50:12;;;;;;;3.67;1.70;;;;;;;3.38;89.00;100525.09;6052896;29;20234;-75
2022/12/08 13:53:38;;;;;;;1.80;1.43;;;;;;;3.66;89.28;100527.69;6047605;29;20232;-76
2022/12/08 13:57:07;;;;;;;3.93;1.83;;;;;;;3.68;87.92;100527.56;6056139;29;20240;-75
2022/12/08 14:00:27;;;;;;;2.57;2.37;;;;;;;3.70;87.99;100539.84;6050366;29;20808;-73
2022/12/08 14:03:52;;;;;;;15.47;11.57;;;;;;;3.84;87.77;100544.25;6059973;29;20229;-74
2022/12/08 14:07:13;;;;;;;12.37;9.83;;;;;;;3.88;87.63;100545.78;6065200;29;20537;-74
2022/12/08 14:10:34;;;;;;;4.87;4.47;;;;;;;3.89;87.91;100548.34;6054464;29;20233;-73
2022/12/08 14:13:56;;;;;;;2.50;2.30;;;;;;;3.89;87.44;100539.47;6052938;29;20233;-74
2022/12/08 14:17:19;;;;;;;1.97;1.80;;;;;;;3.88;87.51;100545.78;6058750;29;20245;-71
2022/12/08 14:20:40;;;;;;;3.77;3.10;;;;;;;3.88;87.72;100545.78;6043801;29;20237;-73
2022/12/08 14:24:02;;;;;;;2.57;1.67;;;;;;;3.65;88.25;100557.09;6052795;29;20512;-74
2022/12/08 14:27:26;;;;;;;2.50;2.30;;;;;;;3.57;88.36;100551.41;6060675;29;20245;-75
2022/12/08 14:30:50;;;;;;;1.73;1.57;;;;;;;3.56;89.35;100561.22;6053865;29;20735;-72
2022/12/08 14:34:12;;;;;;;2.57;2.10;;;;;;;3.46;89.04;100560.13;6058835;29;20887;-74
2022/12/08 14:37:34;;;;;;;1.70;1.60;;;;;;;3.42;89.22;100558.56;6053678;29;20776;-72
2022/12/08 14:41:03;;;;;;;1.87;1.73;;;;;;;3.31;89.66;100553.09;6053124;29;20244;-74
2022/12/08 14:44:24;;;;;;;3.37;3.07;;;;;;;3.34;89.14;100552.06;6056181;29;20225;-71
2022/12/08 14:47:47;;;;;;;6.60;5.70;;;;;;;3.38;88.89;100564.22;6046786;29;20280;-74
2022/12/08 14:51:19;;;;;;;3.20;2.97;;;;;;;3.37;88.87;100567.81;6054496;29;20249;-73
2022/12/08 14:54:42;;;;;;;2.23;2.13;;;;;;;3.40;89.01;100568.47;6063593;29;20233;-73
2022/12/08 14:58:03;;;;;;;5.37;3.23;;;;;;;3.49;88.65;100569.69;6063256;29;20253;-69
2022/12/08 15:01:24;;;;;;;4.50;3.50;;;;;;;3.42;88.52;100569.22;6048942;29;20248;-69
2022/12/08 15:04:49;;;;;;;3.63;3.33;;;;;;;3.45;88.41;100568.19;6057605;29;20241;-71
2022/12/08 15:08:11;;;;;;;2.70;2.50;;;;;;;3.43;89.01;100568.28;6057452;29;20348;-69
2022/12/08 15:11:34;;;;;;;1.97;1.87;;;;;;;3.56;88.78;100576.34;6053817;29;20233;-70
2022/12/08 15:14:58;;;;;;;3.23;2.87;;;;;;;3.61;88.13;100575.09;6061359;29;20237;-70
2022/12/08 15:18:28;;;;;;;2.30;1.97;;;;;;;3.61;88.16;100576.91;6053110;29;20238;-71
2022/12/08 15:21:50;;;;;;;1.90;1.80;;;;;;;3.46;88.16;100576.09;6052430;29;20228;-71
2022/12/08 15:25:12;;;;;;;4.13;2.70;;;;;;;3.49;87.96;100575.88;6049982;29;20237;-71
2022/12/08 15:28:33;;;;;;;2.13;2.00;;;;;;;3.54;88.20;100588.91;6053677;29;20606;-70
2022/12/08 15:31:56;;;;;;;2.77;2.50;;;;;;;3.48;88.03;100586.66;6060206;29;20229;-71
2022/12/08 15:35:17;;;;;;;3.07;2.77;;;;;;;3.57;88.12;100591.38;6053478;29;20233;-71
2022/12/08 15:38:39;;;;;;;3.53;2.30;;;;;;;3.56;88.24;100595.88;6065703;29;20245;-71
2022/12/08 15:42:01;;;;;;;2.27;2.07;;;;;;;3.59;88.18;100600.97;6057532;29;20250;-72
2022/12/08 15:45:27;;;;;;;2.23;2.03;;;;;;;3.63;87.86;100605.16;6060896;29;20233;-71
2022/12/08 15:48:48;;;;;;;2.00;1.90;;;;;;;3.66;88.35;100607.63;6069718;29;20233;-71
2022/12/08 15:52:14;;;;;;;3.10;2.20;;;;;;;3.72;88.43;100609.03;6068390;29;20242;-70
2022/12/08 15:55:37;;;;;;;2.00;1.90;;;;;;;3.69;88.05;100611.91;6062085;29;20328;-74
2022/12/08 15:58:58;;;;;;;3.83;2.20;;;;;;;3.64;87.75;100608.69;6064284;29;20648;-70
2022/12/08 16:02:19;;;;;;;1.97;1.87;;;;;;;3.76;87.66;100608.75;6064563;29;20248;-71
2022/12/08 16:05:40;;;;;;;2.07;1.87;;;;;;;3.72;88.00;100607.22;6066344;29;20237;-71
2022/12/08 16:09:01;;;;;;;3.20;2.90;;;;;;;3.75;87.93;100600.84;6052049;29;20241;-71